createdAt,value
2022-07-26T00:00:49.503Z,49.91
2022-07-26T00:03:16.705Z,51.04
2022-07-26T00:05:44.155Z,51.40
2022-07-26T00:08:11.230Z,51.95
2022-07-26T00:10:43.893Z,52.24
2022-07-26T00:13:11.378Z,52.12
2022-07-26T00:15:39.337Z,52.95
2022-07-26T00:18:08.163Z,53.58
2022-07-26T00:20:40.067Z,53.18
2022-07-26T00:23:08.927Z,53.43
2022-07-26T00:25:36.816Z,54.62
2022-07-26T00:28:04.938Z,54.63
2022-07-26T00:30:32.920Z,54.71
2022-07-26T00:33:00.341Z,54.79
2022-07-26T00:35:27.345Z,55.10
2022-07-26T00:37:54.360Z,54.79
2022-07-26T00:40:21.433Z,55.01
2022-07-26T00:42:48.551Z,55.38
2022-07-26T00:45:17.101Z,55.47
2022-07-26T00:47:44.785Z,55.23
2022-07-26T00:50:17.688Z,56.00
2022-07-26T00:52:48.301Z,56.00
2022-07-26T00:55:17.627Z,56.40
2022-07-26T00:57:45.476Z,56.51
2022-07-26T01:00:26.409Z,56.71
2022-07-26T01:02:55.407Z,56.94
2022-07-26T01:05:24.213Z,57.39
2022-07-26T01:07:54.088Z,56.13
2022-07-26T01:10:21.803Z,54.60
2022-07-26T01:12:48.787Z,54.42
2022-07-26T01:15:18.643Z,56.04
2022-07-26T01:17:46.063Z,56.42
2022-07-26T01:20:14.388Z,57.08
2022-07-26T01:22:43.196Z,57.07
2022-07-26T01:25:10.452Z,57.35
2022-07-26T01:27:39.665Z,57.29
2022-07-26T01:30:11.607Z,57.73
2022-07-26T01:32:39.487Z,58.09
2022-07-26T01:35:08.193Z,59.64
2022-07-26T01:37:36.057Z,59.42
2022-07-26T01:40:04.134Z,58.96
2022-07-26T01:42:32.122Z,59.80
2022-07-26T01:44:59.266Z,59.59
2022-07-26T01:47:26.272Z,59.16
2022-07-26T01:49:54.155Z,59.25
2022-07-26T01:52:21.923Z,59.70
2022-07-26T01:54:48.902Z,59.49
2022-07-26T01:57:15.884Z,59.64
2022-07-26T01:59:45.264Z,59.77
2022-07-26T02:02:12.394Z,60.02
2022-07-26T02:04:59.645Z,60.05
2022-07-26T02:07:33.765Z,59.54
2022-07-26T02:10:01.256Z,60.47
2022-07-26T02:12:28.915Z,59.64
2022-07-26T02:14:56.027Z,60.14
2022-07-26T02:17:23.011Z,60.39
2022-07-26T02:19:50.288Z,60.35
2022-07-26T02:22:17.356Z,60.98
2022-07-26T02:24:44.312Z,61.48
2022-07-26T02:27:11.495Z,60.93
2022-07-26T02:29:38.582Z,61.07
2022-07-26T02:32:06.356Z,61.10
2022-07-26T02:34:34.168Z,60.90
2022-07-26T02:37:01.404Z,62.79
2022-07-26T02:39:28.467Z,62.05
2022-07-26T02:42:01.750Z,62.12
2022-07-26T02:44:30.533Z,61.99
2022-07-26T02:46:57.584Z,61.86
2022-07-26T02:49:24.638Z,61.57
2022-07-26T02:51:52.260Z,61.38
2022-07-26T02:54:19.223Z,61.31
2022-07-26T02:56:46.201Z,61.56
2022-07-26T02:59:13.157Z,61.95
2022-07-26T03:01:40.400Z,61.81
2022-07-26T03:04:08.411Z,62.43
2022-07-26T03:06:35.734Z,62.30
2022-07-26T03:09:02.819Z,61.96
2022-07-26T03:11:29.811Z,61.51
2022-07-26T03:13:56.916Z,60.91
2022-07-26T03:16:29.238Z,61.39
2022-07-26T03:18:57.297Z,62.04
2022-07-26T03:21:24.595Z,61.92
2022-07-26T03:23:51.604Z,60.62
2022-07-26T03:26:18.590Z,61.02
2022-07-26T03:28:45.655Z,61.13
2022-07-26T03:31:13.408Z,60.87
2022-07-26T03:33:41.068Z,61.27
2022-07-26T03:36:11.394Z,61.75
2022-07-26T03:38:39.827Z,61.77
2022-07-26T03:41:06.956Z,62.60
2022-07-26T03:43:36.446Z,62.22
2022-07-26T03:46:03.640Z,61.68
2022-07-26T03:48:31.627Z,62.59
2022-07-26T03:50:58.658Z,62.27
2022-07-26T03:53:25.621Z,61.91
2022-07-26T03:56:11.624Z,62.72
2022-07-26T03:58:38.661Z,63.12
2022-07-26T04:01:05.677Z,62.29
2022-07-26T04:03:33.595Z,62.82
2022-07-26T04:06:00.637Z,62.79
2022-07-26T04:08:28.392Z,63.08
2022-07-26T04:10:55.381Z,62.61
2022-07-26T04:13:24.078Z,62.34
2022-07-26T04:15:51.644Z,62.68
2022-07-26T04:18:18.944Z,63.37
2022-07-26T04:20:46.232Z,63.39
2022-07-26T04:23:13.229Z,64.47
2022-07-26T04:25:41.782Z,65.33
2022-07-26T04:28:11.390Z,64.76
2022-07-26T04:30:39.437Z,64.91
2022-07-26T04:33:07.107Z,65.47
2022-07-26T04:35:34.442Z,64.55
2022-07-26T04:38:02.529Z,65.46
2022-07-26T04:40:34.200Z,64.71
2022-07-26T04:43:09.402Z,65.44
2022-07-26T04:45:42.300Z,65.65
2022-07-26T04:48:09.272Z,66.29
2022-07-26T04:50:36.277Z,66.01
2022-07-26T04:53:03.420Z,67.20
2022-07-26T04:55:30.626Z,66.27
2022-07-26T04:57:57.933Z,65.69
2022-07-26T05:00:25.460Z,65.53
2022-07-26T05:02:59.110Z,66.31
2022-07-26T05:05:30.749Z,65.81
2022-07-26T05:08:02.554Z,66.75
2022-07-26T05:10:38.845Z,67.34
2022-07-26T05:13:07.588Z,67.39
2022-07-26T05:15:36.802Z,67.48
2022-07-26T05:18:10.699Z,66.85
2022-07-26T05:20:40.883Z,67.03
2022-07-26T05:23:08.714Z,67.11
2022-07-26T05:25:36.555Z,67.58
2022-07-26T05:28:04.062Z,67.23
2022-07-26T05:30:31.197Z,66.47
2022-07-26T05:32:58.280Z,66.12
2022-07-26T05:35:25.600Z,65.81
2022-07-26T05:37:53.388Z,67.56
2022-07-26T05:40:20.501Z,67.01
2022-07-26T05:42:47.477Z,66.62
2022-07-26T05:45:15.067Z,65.35
2022-07-26T05:47:42.045Z,64.63
2022-07-26T05:50:09.868Z,64.37
2022-07-26T05:52:36.855Z,65.59
2022-07-26T05:55:04.775Z,65.42
2022-07-26T05:57:31.775Z,64.95
2022-07-26T05:59:58.750Z,66.28
2022-07-26T06:02:25.883Z,66.40
2022-07-26T06:04:53.033Z,65.37
2022-07-26T06:07:20.101Z,65.77
2022-07-26T06:09:47.177Z,65.16
2022-07-26T06:12:14.229Z,66.17
2022-07-26T06:14:41.268Z,66.83
2022-07-26T06:17:08.451Z,65.95
2022-07-26T06:19:36.058Z,65.72
2022-07-26T06:22:03.809Z,66.14
2022-07-26T06:24:30.896Z,64.64
2022-07-26T06:27:04.588Z,64.27
2022-07-26T06:29:33.106Z,64.14
2022-07-26T06:32:00.657Z,64.40
2022-07-26T06:34:27.788Z,64.53
2022-07-26T06:36:54.796Z,64.51
2022-07-26T06:39:21.778Z,63.92
2022-07-26T06:41:48.913Z,63.77
2022-07-26T06:44:15.984Z,63.89
2022-07-26T06:46:43.081Z,63.47
2022-07-26T06:49:10.126Z,62.42
2022-07-26T06:51:37.387Z,61.15
2022-07-26T06:54:05.534Z,61.61
2022-07-26T06:56:33.161Z,61.97
2022-07-26T06:59:00.129Z,62.02
2022-07-26T07:01:51.182Z,59.84
2022-07-26T07:04:14.077Z,59.85
2022-07-26T07:06:41.049Z,59.64
2022-07-26T07:09:08.945Z,59.74
2022-07-26T07:11:38.490Z,59.33
2022-07-26T07:14:07.336Z,59.77
2022-07-26T07:16:34.551Z,60.65
2022-07-26T07:19:01.690Z,58.88
2022-07-26T07:21:28.729Z,60.22
2022-07-26T07:23:55.731Z,60.27
2022-07-26T07:26:24.446Z,60.26
2022-07-26T07:28:51.762Z,59.98
2022-07-26T07:31:23.669Z,58.93
2022-07-26T07:33:58.419Z,58.39
2022-07-26T07:36:25.442Z,57.90
2022-07-26T07:38:52.417Z,58.37
2022-07-26T07:41:19.469Z,57.90
2022-07-26T07:43:46.606Z,58.98
2022-07-26T07:46:13.922Z,60.16
2022-07-26T07:48:47.028Z,59.44
2022-07-26T07:51:14.953Z,58.22
2022-07-26T07:53:43.196Z,59.32
2022-07-26T07:56:23.897Z,59.04
2022-07-26T07:58:52.300Z,58.76
2022-07-26T08:01:19.458Z,58.69
2022-07-26T08:03:50.428Z,57.43
2022-07-26T08:06:18.123Z,56.32
2022-07-26T08:08:45.231Z,55.90
2022-07-26T08:11:16.609Z,56.37
2022-07-26T08:13:47.756Z,55.48
2022-07-26T08:16:15.235Z,55.24
2022-07-26T08:18:56.290Z,55.04
2022-07-26T08:21:24.463Z,53.36
2022-07-26T08:23:54.465Z,54.88
2022-07-26T08:26:21.468Z,54.46
2022-07-26T08:28:59.238Z,53.20
2022-07-26T08:31:29.118Z,53.84
2022-07-26T08:33:56.610Z,52.78
2022-07-26T08:36:23.778Z,50.68
2022-07-26T08:38:51.378Z,50.63
2022-07-26T08:41:19.440Z,49.71
2022-07-26T08:43:53.069Z,49.79
2022-07-26T08:46:27.764Z,48.64
2022-07-26T08:48:58.302Z,45.81
2022-07-26T08:51:26.797Z,46.83
2022-07-26T08:54:08.107Z,46.80
2022-07-26T08:56:40.571Z,48.24
2022-07-26T08:59:21.487Z,49.58
2022-07-26T09:02:02.673Z,48.57
2022-07-26T09:04:44.601Z,47.48
2022-07-26T09:07:17.793Z,46.68
2022-07-26T09:10:10.449Z,46.93
2022-07-26T09:12:41.896Z,46.38
2022-07-26T09:15:28.308Z,46.12
2022-07-26T09:17:57.954Z,46.40
2022-07-26T09:20:31.007Z,45.67
2022-07-26T09:23:12.148Z,46.28
2022-07-26T09:25:45.492Z,46.00
2022-07-26T09:28:31.354Z,45.48
2022-07-26T09:31:05.976Z,43.41
2022-07-26T09:33:51.594Z,43.80
2022-07-26T09:36:19.181Z,43.84
2022-07-26T09:38:50.316Z,45.18
2022-07-26T09:41:37.754Z,42.25
2022-07-26T09:44:21.728Z,42.88
2022-07-26T09:46:57.221Z,42.74
2022-07-26T09:49:39.973Z,41.42
2022-07-26T09:52:21.367Z,41.44
2022-07-26T09:54:49.626Z,41.81
2022-07-26T09:57:23.192Z,39.81
2022-07-26T09:59:50.216Z,41.42
2022-07-26T10:02:17.516Z,40.84
2022-07-26T10:04:46.190Z,40.17
2022-07-26T10:07:13.249Z,40.15
2022-07-26T10:09:57.385Z,39.81
2022-07-26T10:12:30.707Z,38.84
2022-07-26T10:14:59.146Z,38.20
2022-07-26T10:17:31.462Z,37.84
2022-07-26T10:20:09.196Z,38.04
2022-07-26T10:22:40.597Z,38.22
2022-07-26T10:25:20.493Z,38.71
2022-07-26T10:28:00.158Z,37.92
2022-07-26T10:30:34.290Z,38.87
2022-07-26T10:33:13.266Z,38.52
2022-07-26T10:35:43.466Z,38.22
2022-07-26T10:38:18.233Z,38.54
2022-07-26T10:41:00.481Z,38.15
2022-07-26T10:43:44.738Z,37.50
2022-07-26T10:46:20.260Z,37.53
2022-07-26T10:49:07.477Z,37.78
2022-07-26T10:51:42.117Z,37.42
2022-07-26T10:54:14.999Z,36.98
2022-07-26T10:56:42.278Z,36.11
2022-07-26T10:59:09.368Z,35.02
2022-07-26T11:01:41.028Z,34.97
2022-07-26T11:04:24.921Z,35.05
2022-07-26T11:06:53.060Z,35.74
2022-07-26T11:09:20.788Z,35.08
2022-07-26T11:11:49.103Z,34.57
2022-07-26T11:14:18.207Z,34.26
2022-07-26T11:16:51.136Z,33.89
2022-07-26T11:19:27.622Z,32.79
2022-07-26T11:21:59.031Z,34.35
2022-07-26T11:24:27.479Z,35.09
2022-07-26T11:26:55.328Z,34.71
2022-07-26T11:29:37.315Z,33.83
2022-07-26T11:32:22.405Z,33.42
2022-07-26T11:35:03.590Z,31.67
2022-07-26T11:37:31.016Z,31.57
2022-07-26T11:39:58.062Z,32.38
2022-07-26T11:42:25.231Z,32.19
2022-07-26T11:44:53.933Z,32.21
2022-07-26T11:47:25.213Z,31.64
2022-07-26T11:50:16.556Z,31.70
2022-07-26T11:52:41.664Z,32.08
2022-07-26T11:55:10.211Z,31.49
2022-07-26T11:57:37.807Z,30.94
2022-07-26T12:00:06.235Z,30.87
2022-07-26T12:02:33.360Z,31.13
2022-07-26T12:05:23.071Z,30.63
2022-07-26T12:08:05.143Z,32.02
2022-07-26T12:10:32.414Z,29.79
2022-07-26T12:13:20.048Z,30.12
2022-07-26T12:15:50.998Z,29.79
2022-07-26T12:18:31.281Z,28.75
2022-07-26T12:21:09.383Z,30.15
2022-07-26T12:23:49.895Z,29.04
2022-07-26T12:26:27.100Z,29.48
2022-07-26T12:28:56.011Z,29.51
2022-07-26T12:31:30.008Z,28.83
2022-07-26T12:33:58.273Z,29.35
2022-07-26T12:36:27.842Z,29.63
2022-07-26T12:39:00.466Z,29.08
2022-07-26T12:41:40.561Z,28.52
2022-07-26T12:44:12.659Z,27.16
2022-07-26T12:46:40.143Z,28.68
2022-07-26T12:49:07.293Z,29.47
2022-07-26T12:51:36.264Z,28.45
2022-07-26T12:54:06.289Z,27.10
2022-07-26T12:56:34.016Z,27.75
2022-07-26T12:59:02.150Z,27.75
2022-07-26T13:01:31.346Z,26.99
2022-07-26T13:03:58.747Z,27.80
2022-07-26T13:06:25.761Z,27.19
2022-07-26T13:08:52.735Z,26.88
2022-07-26T13:11:19.720Z,26.21
2022-07-26T13:13:47.620Z,26.75
2022-07-26T13:16:14.573Z,26.17
2022-07-26T13:18:45.828Z,26.81
2022-07-26T13:21:12.803Z,26.18
2022-07-26T13:23:39.858Z,25.67
2022-07-26T13:26:08.389Z,25.94
2022-07-26T13:28:36.877Z,25.66
2022-07-26T13:31:03.999Z,24.57
2022-07-26T13:33:31.984Z,23.38
2022-07-26T13:35:59.078Z,24.05
2022-07-26T13:38:27.949Z,23.95
2022-07-26T13:40:54.933Z,24.40
2022-07-26T13:43:21.933Z,25.40
2022-07-26T13:45:49.045Z,25.69
2022-07-26T13:48:16.121Z,25.18
2022-07-26T13:50:43.287Z,24.69
2022-07-26T13:53:10.273Z,24.33
2022-07-26T13:55:37.341Z,24.65
2022-07-26T13:58:09.719Z,24.65
2022-07-26T14:00:38.012Z,24.14
2022-07-26T14:03:06.031Z,24.20
2022-07-26T14:05:33.265Z,24.01
2022-07-26T14:08:00.449Z,22.42
2022-07-26T14:10:27.492Z,23.61
2022-07-26T14:12:54.813Z,23.30
2022-07-26T14:15:23.500Z,23.37
2022-07-26T14:17:53.961Z,23.62
2022-07-26T14:20:23.081Z,23.74
2022-07-26T14:22:56.363Z,22.83
2022-07-26T14:25:25.413Z,22.49
2022-07-26T14:27:54.570Z,23.06
2022-07-26T14:30:22.654Z,22.36
2022-07-26T14:32:50.982Z,22.69
2022-07-26T14:35:18.485Z,23.21
2022-07-26T14:37:46.110Z,23.83
2022-07-26T14:40:17.627Z,22.98
2022-07-26T14:42:46.400Z,24.56
2022-07-26T14:45:14.469Z,23.71
2022-07-26T14:47:41.896Z,23.54
2022-07-26T14:50:11.178Z,23.14
2022-07-26T14:52:47.539Z,23.69
2022-07-26T14:55:19.217Z,23.45
2022-07-26T14:57:50.200Z,24.38
2022-07-26T15:00:18.634Z,22.50
2022-07-26T15:02:48.613Z,23.27
2022-07-26T15:05:17.140Z,23.20
2022-07-26T15:07:44.964Z,23.96
2022-07-26T15:10:14.869Z,23.81
2022-07-26T15:12:43.603Z,23.26
2022-07-26T15:15:11.799Z,23.50
2022-07-26T15:17:38.817Z,22.81
2022-07-26T15:20:07.586Z,23.11
2022-07-26T15:22:36.896Z,23.03
2022-07-26T15:25:04.304Z,22.25
2022-07-26T15:27:31.286Z,23.55
2022-07-26T15:30:03.563Z,23.77
2022-07-26T15:32:33.137Z,22.98
2022-07-26T15:35:01.354Z,22.99
2022-07-26T15:37:28.864Z,23.71
2022-07-26T15:39:56.086Z,23.95
2022-07-26T15:42:23.366Z,23.44
2022-07-26T15:44:50.790Z,23.69
2022-07-26T15:47:36.894Z,23.37
2022-07-26T15:50:09.115Z,23.85
2022-07-26T15:52:44.573Z,23.32
2022-07-26T15:55:13.078Z,22.87
2022-07-26T15:57:41.201Z,24.01
2022-07-26T16:00:11.272Z,24.62
2022-07-26T16:02:40.511Z,22.66
2022-07-26T16:05:09.421Z,23.53
2022-07-26T16:07:36.541Z,22.73
2022-07-26T16:10:05.946Z,25.12
2022-07-26T16:12:33.918Z,24.80
2022-07-26T16:15:01.357Z,25.24
2022-07-26T16:17:28.365Z,25.87
2022-07-26T16:19:55.308Z,26.45
2022-07-26T16:22:22.326Z,27.71
2022-07-26T16:24:55.225Z,27.70
2022-07-26T16:27:22.286Z,27.39
2022-07-26T16:29:52.290Z,27.10
2022-07-26T16:32:21.344Z,26.34
2022-07-26T16:34:48.709Z,26.61
2022-07-26T16:37:15.855Z,26.46
2022-07-26T16:39:42.831Z,27.11
2022-07-26T16:42:09.960Z,27.10
2022-07-26T16:44:36.995Z,27.24
2022-07-26T16:47:04.763Z,27.26
2022-07-26T16:49:31.914Z,27.68
2022-07-26T16:51:59.017Z,26.84
2022-07-26T16:54:26.411Z,27.85
2022-07-26T16:56:54.422Z,26.95
2022-07-26T16:59:21.395Z,27.40
2022-07-26T17:01:48.436Z,27.10
2022-07-26T17:04:16.604Z,27.38
2022-07-26T17:07:01.815Z,27.75
2022-07-26T17:09:33.068Z,28.05
2022-07-26T17:12:05.924Z,28.03
2022-07-26T17:14:34.313Z,28.39
2022-07-26T17:17:01.333Z,29.06
2022-07-26T17:19:28.421Z,29.03
2022-07-26T17:21:56.270Z,28.90
2022-07-26T17:24:23.271Z,29.05
2022-07-26T17:26:51.157Z,29.75
2022-07-26T17:29:18.264Z,29.29
2022-07-26T17:31:45.268Z,29.38
2022-07-26T17:34:12.292Z,29.42
2022-07-26T17:36:39.334Z,29.46
2022-07-26T17:39:10.285Z,29.57
2022-07-26T17:41:47.505Z,29.16
2022-07-26T17:44:15.055Z,29.77
2022-07-26T17:46:42.552Z,29.90
2022-07-26T17:49:09.904Z,30.50
2022-07-26T17:51:37.613Z,30.62
2022-07-26T17:54:04.844Z,30.81
2022-07-26T17:56:32.725Z,30.57
2022-07-26T17:58:59.789Z,30.39
2022-07-26T18:01:27.305Z,30.14
2022-07-26T18:03:54.408Z,30.19
2022-07-26T18:06:21.441Z,30.59
2022-07-26T18:08:48.420Z,30.96
2022-07-26T18:11:15.387Z,30.57
2022-07-26T18:13:42.584Z,30.61
2022-07-26T18:16:09.611Z,30.44
2022-07-26T18:18:36.685Z,31.34
2022-07-26T18:21:03.978Z,30.35
2022-07-26T18:23:31.031Z,29.98
2022-07-26T18:25:59.122Z,29.92
2022-07-26T18:28:28.953Z,30.35
2022-07-26T18:30:56.056Z,30.42
2022-07-26T18:33:23.103Z,30.36
2022-07-26T18:35:50.112Z,30.33
2022-07-26T18:38:17.160Z,30.25
2022-07-26T18:40:44.191Z,30.48
2022-07-26T18:43:11.201Z,31.01
2022-07-26T18:45:38.191Z,30.67
2022-07-26T18:48:05.308Z,31.36
2022-07-26T18:50:32.755Z,31.13
2022-07-26T18:53:00.175Z,30.61
2022-07-26T18:55:27.753Z,30.57
2022-07-26T18:57:54.769Z,31.22
2022-07-26T19:00:23.043Z,30.92
2022-07-26T19:02:52.145Z,30.93
2022-07-26T19:05:22.771Z,31.35
2022-07-26T19:07:50.917Z,31.48
2022-07-26T19:10:18.418Z,31.42
2022-07-26T19:12:45.805Z,31.26
2022-07-26T19:15:16.863Z,31.32
2022-07-26T19:17:45.685Z,32.38
2022-07-26T19:20:13.247Z,31.57
2022-07-26T19:22:40.787Z,32.00
2022-07-26T19:25:10.478Z,32.34
2022-07-26T19:27:38.654Z,37.14
2022-07-26T19:30:11.233Z,32.79
2022-07-26T19:32:38.689Z,32.77
2022-07-26T19:35:07.799Z,32.81
2022-07-26T19:37:39.099Z,32.66
2022-07-26T19:40:07.282Z,32.69
2022-07-26T19:42:34.332Z,32.89
2022-07-26T19:45:01.288Z,32.31
2022-07-26T19:47:29.811Z,32.55
2022-07-26T19:49:57.370Z,32.76
2022-07-26T19:52:24.384Z,33.27
2022-07-26T19:54:51.709Z,33.72
2022-07-26T19:57:19.483Z,33.58
2022-07-26T19:59:48.848Z,34.49
2022-07-26T20:02:16.565Z,34.12
2022-07-26T20:04:46.217Z,34.32
2022-07-26T20:07:20.006Z,34.72
2022-07-26T20:09:49.608Z,33.98
2022-07-26T20:12:17.824Z,34.23
2022-07-26T20:14:45.548Z,34.05
2022-07-26T20:17:13.465Z,33.95
2022-07-26T20:19:41.012Z,34.57
2022-07-26T20:22:08.397Z,35.20
2022-07-26T20:24:35.410Z,35.12
2022-07-26T20:27:02.378Z,35.98
2022-07-26T20:29:29.368Z,35.59
2022-07-26T20:31:57.263Z,35.14
2022-07-26T20:34:24.249Z,34.95
2022-07-26T20:36:53.475Z,35.21
2022-07-26T20:39:21.511Z,35.96
2022-07-26T20:41:48.821Z,35.78
2022-07-26T20:44:19.938Z,35.70
2022-07-26T20:46:49.340Z,35.42
2022-07-26T20:49:17.222Z,35.91
2022-07-26T20:52:53.545Z,35.55
2022-07-26T20:55:20.767Z,35.82
2022-07-26T20:57:47.867Z,35.79
2022-07-26T21:00:16.313Z,36.00
2022-07-26T21:02:43.784Z,36.16
2022-07-26T21:05:11.199Z,36.06
2022-07-26T21:07:58.413Z,36.81
2022-07-26T21:10:25.619Z,37.08
2022-07-26T21:12:53.878Z,36.66
2022-07-26T21:15:20.906Z,36.55
2022-07-26T21:17:47.864Z,36.20
2022-07-26T21:20:15.128Z,36.36
2022-07-26T21:22:42.112Z,37.37
2022-07-26T21:25:09.835Z,37.17
2022-07-26T21:27:38.753Z,37.66
2022-07-26T21:30:39.944Z,37.08
2022-07-26T21:33:08.207Z,37.92
2022-07-26T21:35:35.187Z,37.79
2022-07-26T21:38:02.293Z,37.08
2022-07-26T21:40:29.449Z,37.26
2022-07-26T21:42:56.450Z,37.73
2022-07-26T21:45:23.431Z,38.30
2022-07-26T21:47:50.483Z,37.81
2022-07-26T21:50:17.439Z,38.06
2022-07-26T21:52:44.404Z,38.07
2022-07-26T21:55:11.466Z,38.40
2022-07-26T21:57:45.268Z,38.75
2022-07-26T22:00:15.653Z,39.01
2022-07-26T22:02:42.614Z,38.04
2022-07-26T22:05:28.558Z,38.86
2022-07-26T22:07:55.740Z,38.98
2022-07-26T22:10:22.805Z,38.88
2022-07-26T22:12:49.937Z,39.65
2022-07-26T22:15:16.946Z,39.90
2022-07-26T22:17:43.921Z,39.84
2022-07-26T22:20:12.346Z,39.88
2022-07-26T22:22:39.641Z,39.89
2022-07-26T22:25:07.530Z,40.12
2022-07-26T22:27:35.403Z,39.65
2022-07-26T22:30:02.806Z,40.30
2022-07-26T22:32:30.015Z,40.16
2022-07-26T22:34:58.262Z,40.59
2022-07-26T22:37:25.284Z,40.15
2022-07-26T22:39:52.233Z,40.55
2022-07-26T22:42:19.241Z,40.23
2022-07-26T22:44:46.248Z,40.10
2022-07-26T22:47:13.210Z,40.65
2022-07-26T22:49:40.303Z,40.20
2022-07-26T22:52:07.337Z,40.23
2022-07-26T22:54:34.458Z,40.07
2022-07-26T22:57:01.415Z,40.12
2022-07-26T22:59:29.665Z,41.45
2022-07-26T23:02:15.328Z,41.10
2022-07-26T23:04:42.289Z,41.33
2022-07-26T23:07:10.328Z,41.23
2022-07-26T23:09:40.036Z,41.18
2022-07-26T23:12:07.768Z,41.35
2022-07-26T23:14:34.729Z,41.74
2022-07-26T23:17:03.455Z,41.21
2022-07-26T23:19:30.439Z,41.35
2022-07-26T23:21:57.396Z,41.97
2022-07-26T23:24:25.209Z,41.17
2022-07-26T23:26:52.166Z,41.15
2022-07-26T23:29:19.151Z,40.88
2022-07-26T23:31:46.289Z,41.32
2022-07-26T23:34:13.607Z,41.49
2022-07-26T23:36:41.560Z,41.65
2022-07-26T23:39:08.784Z,41.84
2022-07-26T23:41:36.039Z,42.32
2022-07-26T23:44:03.038Z,43.47
2022-07-26T23:46:30.082Z,42.93
2022-07-26T23:48:58.566Z,42.25
2022-07-26T23:51:25.763Z,42.77
2022-07-26T23:53:53.224Z,42.89
2022-07-26T23:56:20.357Z,43.03
2022-07-26T23:58:47.541Z,44.67
